Terminal Aerodrome Forecast
Issued by NWS Austin/San Antonio, TX

Home | Current Version | Previous Version | Text Only | Print | Product List | Glossary On
Versions: 1 2 3 4 5 6 7 8 9 10 11 12 13 14 15 16 17 18
000
FTUS44 KEWX 050520
TAFDRT
TAF
KDRT 050520Z 0506/0606 10012KT P6SM SCT150
     FM051200 12010KT P6SM BKN020
     FM051600 14014KT P6SM SCT040
     FM060100 12008KT P6SM SKC=

USA.gov is the U.S. government's official web portal to all federal, state and local government web resources and services.